sensor_id;sensor_type;location;lat;lon;timestamp;P1;durP1;ratioP1;P2;durP2;ratioP2
76566;SDS011;65428;53.194;6.132;2023-06-10T00:01:41;11.25;;;7.90;;
76566;SDS011;65428;53.194;6.132;2023-06-10T00:04:08;11.05;;;8.13;;
76566;SDS011;65428;53.194;6.132;2023-06-10T00:06:34;10.40;;;8.20;;
76566;SDS011;65428;53.194;6.132;2023-06-10T00:09:03;12.40;;;8.00;;
76566;SDS011;65428;53.194;6.132;2023-06-10T00:11:30;13.65;;;8.27;;
76566;SDS011;65428;53.194;6.132;2023-06-10T00:13:56;11.10;;;7.83;;
76566;SDS011;65428;53.194;6.132;2023-06-10T00:16:22;11.43;;;7.88;;
76566;SDS011;65428;53.194;6.132;2023-06-10T00:18:48;12.13;;;8.07;;
76566;SDS011;65428;53.194;6.132;2023-06-10T00:21:16;10.02;;;7.80;;
76566;SDS011;65428;53.194;6.132;2023-06-10T00:23:41;11.90;;;8.35;;
76566;SDS011;65428;53.194;6.132;2023-06-10T00:26:07;12.15;;;7.72;;
76566;SDS011;65428;53.194;6.132;2023-06-10T00:28:33;9.90;;;7.30;;
76566;SDS011;65428;53.194;6.132;2023-06-10T00:30:59;10.77;;;7.63;;
76566;SDS011;65428;53.194;6.132;2023-06-10T00:33:25;11.55;;;7.70;;
76566;SDS011;65428;53.194;6.132;2023-06-10T00:35:51;9.98;;;8.02;;
76566;SDS011;65428;53.194;6.132;2023-06-10T00:38:16;9.50;;;7.77;;
76566;SDS011;65428;53.194;6.132;2023-06-10T00:40:42;12.07;;;8.00;;
76566;SDS011;65428;53.194;6.132;2023-06-10T00:43:08;11.30;;;8.82;;
76566;SDS011;65428;53.194;6.132;2023-06-10T00:45:34;10.60;;;8.20;;
76566;SDS011;65428;53.194;6.132;2023-06-10T00:48:00;10.85;;;8.02;;
76566;SDS011;65428;53.194;6.132;2023-06-10T00:50:26;10.88;;;7.65;;
76566;SDS011;65428;53.194;6.132;2023-06-10T00:52:53;11.68;;;8.52;;
76566;SDS011;65428;53.194;6.132;2023-06-10T00:55:19;11.27;;;7.87;;
76566;SDS011;65428;53.194;6.132;2023-06-10T00:57:45;11.07;;;7.55;;
76566;SDS011;65428;53.194;6.132;2023-06-10T01:00:13;10.25;;;7.50;;
76566;SDS011;65428;53.194;6.132;2023-06-10T01:02:40;12.70;;;8.45;;
76566;SDS011;65428;53.194;6.132;2023-06-10T01:05:06;10.35;;;8.55;;
76566;SDS011;65428;53.194;6.132;2023-06-10T01:10:16;11.60;;;8.13;;
76566;SDS011;65428;53.194;6.132;2023-06-10T01:12:55;11.82;;;8.50;;
76566;SDS011;65428;53.194;6.132;2023-06-10T01:15:27;9.63;;;7.70;;
76566;SDS011;65428;53.194;6.132;2023-06-10T01:17:57;10.18;;;7.75;;
76566;SDS011;65428;53.194;6.132;2023-06-10T01:20:28;11.65;;;8.90;;
76566;SDS011;65428;53.194;6.132;2023-06-10T01:22:54;11.20;;;7.90;;
76566;SDS011;65428;53.194;6.132;2023-06-10T01:25:22;13.23;;;8.13;;
76566;SDS011;65428;53.194;6.132;2023-06-10T01:27:53;11.73;;;8.20;;
76566;SDS011;65428;53.194;6.132;2023-06-10T01:33:22;11.40;;;7.90;;
76566;SDS011;65428;53.194;6.132;2023-06-10T01:35:56;9.35;;;7.60;;
76566;SDS011;65428;53.194;6.132;2023-06-10T01:38:23;11.32;;;7.95;;
76566;SDS011;65428;53.194;6.132;2023-06-10T01:40:52;11.00;;;7.90;;
76566;SDS011;65428;53.194;6.132;2023-06-10T01:43:20;10.40;;;8.38;;
76566;SDS011;65428;53.194;6.132;2023-06-10T01:45:46;10.43;;;7.80;;
76566;SDS011;65428;53.194;6.132;2023-06-10T01:48:12;10.50;;;8.63;;
76566;SDS011;65428;53.194;6.132;2023-06-10T01:50:38;11.55;;;8.43;;
76566;SDS011;65428;53.194;6.132;2023-06-10T01:53:03;9.93;;;7.80;;
76566;SDS011;65428;53.194;6.132;2023-06-10T01:55:30;12.38;;;8.15;;
76566;SDS011;65428;53.194;6.132;2023-06-10T01:57:56;11.43;;;8.05;;
76566;SDS011;65428;53.194;6.132;2023-06-10T02:00:21;9.60;;;7.90;;
76566;SDS011;65428;53.194;6.132;2023-06-10T02:02:47;11.37;;;8.37;;
76566;SDS011;65428;53.194;6.132;2023-06-10T02:05:13;11.57;;;8.50;;
76566;SDS011;65428;53.194;6.132;2023-06-10T02:07:38;10.83;;;8.30;;
76566;SDS011;65428;53.194;6.132;2023-06-10T02:10:05;10.15;;;8.02;;
76566;SDS011;65428;53.194;6.132;2023-06-10T02:12:31;12.63;;;8.25;;
76566;SDS011;65428;53.194;6.132;2023-06-10T02:14:57;8.73;;;7.73;;
76566;SDS011;65428;53.194;6.132;2023-06-10T02:17:22;10.75;;;8.25;;
76566;SDS011;65428;53.194;6.132;2023-06-10T02:19:48;11.43;;;7.87;;
76566;SDS011;65428;53.194;6.132;2023-06-10T02:22:20;10.38;;;8.20;;
76566;SDS011;65428;53.194;6.132;2023-06-10T02:24:48;11.88;;;8.02;;
76566;SDS011;65428;53.194;6.132;2023-06-10T02:27:15;12.20;;;8.60;;
76566;SDS011;65428;53.194;6.132;2023-06-10T02:29:41;10.68;;;8.48;;
76566;SDS011;65428;53.194;6.132;2023-06-10T02:32:07;10.65;;;8.23;;
76566;SDS011;65428;53.194;6.132;2023-06-10T02:34:33;11.05;;;8.23;;
76566;SDS011;65428;53.194;6.132;2023-06-10T02:36:59;11.60;;;7.90;;
76566;SDS011;65428;53.194;6.132;2023-06-10T02:39:24;9.73;;;7.80;;
76566;SDS011;65428;53.194;6.132;2023-06-10T02:41:50;10.43;;;7.95;;
76566;SDS011;65428;53.194;6.132;2023-06-10T02:44:17;11.40;;;8.17;;
76566;SDS011;65428;53.194;6.132;2023-06-10T02:46:43;10.15;;;7.90;;
76566;SDS011;65428;53.194;6.132;2023-06-10T02:49:09;11.57;;;7.85;;
76566;SDS011;65428;53.194;6.132;2023-06-10T02:51:35;11.33;;;8.30;;
76566;SDS011;65428;53.194;6.132;2023-06-10T02:54:01;11.38;;;8.18;;
76566;SDS011;65428;53.194;6.132;2023-06-10T02:56:26;10.25;;;8.02;;
76566;SDS011;65428;53.194;6.132;2023-06-10T02:58:52;12.17;;;8.47;;
76566;SDS011;65428;53.194;6.132;2023-06-10T03:01:18;10.97;;;8.50;;
76566;SDS011;65428;53.194;6.132;2023-06-10T03:03:44;10.23;;;8.13;;
76566;SDS011;65428;53.194;6.132;2023-06-10T03:06:11;10.25;;;7.97;;
76566;SDS011;65428;53.194;6.132;2023-06-10T03:08:38;10.87;;;8.73;;
76566;SDS011;65428;53.194;6.132;2023-06-10T03:11:04;14.25;;;9.13;;
76566;SDS011;65428;53.194;6.132;2023-06-10T03:13:29;10.57;;;8.77;;
76566;SDS011;65428;53.194;6.132;2023-06-10T03:15:55;12.70;;;9.93;;
76566;SDS011;65428;53.194;6.132;2023-06-10T03:18:21;12.70;;;9.65;;
76566;SDS011;65428;53.194;6.132;2023-06-10T03:20:51;12.57;;;9.30;;
76566;SDS011;65428;53.194;6.132;2023-06-10T03:23:16;12.23;;;9.68;;
76566;SDS011;65428;53.194;6.132;2023-06-10T03:25:43;15.70;;;10.35;;
76566;SDS011;65428;53.194;6.132;2023-06-10T03:28:09;12.88;;;10.05;;
76566;SDS011;65428;53.194;6.132;2023-06-10T03:30:37;13.77;;;10.43;;
76566;SDS011;65428;53.194;6.132;2023-06-10T03:33:02;13.48;;;10.90;;
76566;SDS011;65428;53.194;6.132;2023-06-10T03:35:29;12.93;;;10.83;;
76566;SDS011;65428;53.194;6.132;2023-06-10T03:37:54;12.32;;;10.82;;
76566;SDS011;65428;53.194;6.132;2023-06-10T03:40:20;13.63;;;10.83;;
76566;SDS011;65428;53.194;6.132;2023-06-10T03:42:46;13.48;;;10.23;;
76566;SDS011;65428;53.194;6.132;2023-06-10T03:45:11;13.27;;;10.53;;
76566;SDS011;65428;53.194;6.132;2023-06-10T03:47:37;14.70;;;10.38;;
76566;SDS011;65428;53.194;6.132;2023-06-10T03:50:04;13.68;;;10.40;;
76566;SDS011;65428;53.194;6.132;2023-06-10T03:52:30;12.63;;;10.57;;
76566;SDS011;65428;53.194;6.132;2023-06-10T03:54:55;13.37;;;10.80;;
76566;SDS011;65428;53.194;6.132;2023-06-10T03:57:21;12.20;;;11.00;;
76566;SDS011;65428;53.194;6.132;2023-06-10T03:59:47;13.00;;;10.50;;
76566;SDS011;65428;53.194;6.132;2023-06-10T04:02:12;14.43;;;10.80;;
76566;SDS011;65428;53.194;6.132;2023-06-10T04:04:38;13.57;;;10.27;;
76566;SDS011;65428;53.194;6.132;2023-06-10T04:07:04;13.77;;;10.10;;
76566;SDS011;65428;53.194;6.132;2023-06-10T04:09:30;12.73;;;9.43;;
76566;SDS011;65428;53.194;6.132;2023-06-10T04:11:56;12.52;;;9.43;;
76566;SDS011;65428;53.194;6.132;2023-06-10T04:14:22;13.87;;;9.90;;
76566;SDS011;65428;53.194;6.132;2023-06-10T04:16:49;11.75;;;9.20;;
76566;SDS011;65428;53.194;6.132;2023-06-10T04:19:15;12.70;;;9.45;;
76566;SDS011;65428;53.194;6.132;2023-06-10T04:21:41;11.38;;;9.40;;
76566;SDS011;65428;53.194;6.132;2023-06-10T04:24:07;12.38;;;9.40;;
76566;SDS011;65428;53.194;6.132;2023-06-10T04:26:34;11.10;;;9.77;;
76566;SDS011;65428;53.194;6.132;2023-06-10T04:29:00;12.23;;;9.35;;
76566;SDS011;65428;53.194;6.132;2023-06-10T04:31:26;11.30;;;8.82;;
76566;SDS011;65428;53.194;6.132;2023-06-10T04:33:52;11.07;;;9.02;;
76566;SDS011;65428;53.194;6.132;2023-06-10T04:36:18;11.23;;;8.30;;
76566;SDS011;65428;53.194;6.132;2023-06-10T04:38:44;12.20;;;8.07;;
76566;SDS011;65428;53.194;6.132;2023-06-10T04:41:10;10.40;;;8.23;;
76566;SDS011;65428;53.194;6.132;2023-06-10T04:43:36;11.90;;;7.63;;
76566;SDS011;65428;53.194;6.132;2023-06-10T04:46:02;12.10;;;8.07;;
76566;SDS011;65428;53.194;6.132;2023-06-10T04:48:27;10.47;;;7.63;;
76566;SDS011;65428;53.194;6.132;2023-06-10T04:50:53;13.23;;;8.40;;
76566;SDS011;65428;53.194;6.132;2023-06-10T04:53:18;13.80;;;7.77;;
76566;SDS011;65428;53.194;6.132;2023-06-10T04:55:45;11.65;;;7.80;;
76566;SDS011;65428;53.194;6.132;2023-06-10T04:58:11;10.93;;;7.88;;
76566;SDS011;65428;53.194;6.132;2023-06-10T05:00:37;11.47;;;7.53;;
76566;SDS011;65428;53.194;6.132;2023-06-10T05:03:02;10.13;;;7.88;;
76566;SDS011;65428;53.194;6.132;2023-06-10T05:05:28;10.73;;;7.67;;
76566;SDS011;65428;53.194;6.132;2023-06-10T05:07:53;13.43;;;7.63;;
76566;SDS011;65428;53.194;6.132;2023-06-10T05:10:19;12.27;;;8.17;;
76566;SDS011;65428;53.194;6.132;2023-06-10T05:12:45;10.25;;;7.40;;
76566;SDS011;65428;53.194;6.132;2023-06-10T05:15:10;9.50;;;7.40;;
76566;SDS011;65428;53.194;6.132;2023-06-10T05:17:36;11.95;;;7.40;;
76566;SDS011;65428;53.194;6.132;2023-06-10T05:20:02;11.95;;;7.80;;
76566;SDS011;65428;53.194;6.132;2023-06-10T05:22:28;12.18;;;7.85;;
76566;SDS011;65428;53.194;6.132;2023-06-10T05:24:57;10.85;;;7.50;;
76566;SDS011;65428;53.194;6.132;2023-06-10T05:27:22;11.93;;;7.28;;
76566;SDS011;65428;53.194;6.132;2023-06-10T05:29:49;12.30;;;7.85;;
76566;SDS011;65428;53.194;6.132;2023-06-10T05:32:16;10.55;;;7.50;;
76566;SDS011;65428;53.194;6.132;2023-06-10T05:34:42;10.77;;;7.80;;
76566;SDS011;65428;53.194;6.132;2023-06-10T05:37:08;10.65;;;7.20;;
76566;SDS011;65428;53.194;6.132;2023-06-10T05:39:35;12.73;;;7.20;;
76566;SDS011;65428;53.194;6.132;2023-06-10T05:42:03;10.50;;;7.53;;
76566;SDS011;65428;53.194;6.132;2023-06-10T05:44:29;12.50;;;7.10;;
76566;SDS011;65428;53.194;6.132;2023-06-10T05:46:55;10.27;;;7.20;;
76566;SDS011;65428;53.194;6.132;2023-06-10T05:49:20;11.60;;;7.32;;
76566;SDS011;65428;53.194;6.132;2023-06-10T05:51:46;10.60;;;6.90;;
76566;SDS011;65428;53.194;6.132;2023-06-10T05:54:11;11.93;;;6.50;;
76566;SDS011;65428;53.194;6.132;2023-06-10T05:56:37;10.55;;;6.40;;
76566;SDS011;65428;53.194;6.132;2023-06-10T05:59:03;11.07;;;6.90;;
76566;SDS011;65428;53.194;6.132;2023-06-10T06:01:28;10.07;;;6.18;;
76566;SDS011;65428;53.194;6.132;2023-06-10T06:03:54;9.60;;;6.00;;
76566;SDS011;65428;53.194;6.132;2023-06-10T06:06:20;11.43;;;6.97;;
76566;SDS011;65428;53.194;6.132;2023-06-10T06:08:45;10.70;;;6.50;;
76566;SDS011;65428;53.194;6.132;2023-06-10T06:11:11;9.60;;;6.45;;
76566;SDS011;65428;53.194;6.132;2023-06-10T06:13:37;11.43;;;6.60;;
76566;SDS011;65428;53.194;6.132;2023-06-10T06:16:02;9.60;;;6.30;;
76566;SDS011;65428;53.194;6.132;2023-06-10T06:18:28;10.27;;;6.50;;
76566;SDS011;65428;53.194;6.132;2023-06-10T06:20:54;10.43;;;6.70;;
76566;SDS011;65428;53.194;6.132;2023-06-10T06:23:19;11.63;;;6.50;;
76566;SDS011;65428;53.194;6.132;2023-06-10T06:25:45;9.50;;;6.15;;
76566;SDS011;65428;53.194;6.132;2023-06-10T06:28:10;9.13;;;6.00;;
76566;SDS011;65428;53.194;6.132;2023-06-10T06:30:36;10.05;;;5.57;;
76566;SDS011;65428;53.194;6.132;2023-06-10T06:33:02;8.20;;;5.10;;
76566;SDS011;65428;53.194;6.132;2023-06-10T06:35:30;8.23;;;5.22;;
76566;SDS011;65428;53.194;6.132;2023-06-10T06:37:56;7.73;;;5.67;;
76566;SDS011;65428;53.194;6.132;2023-06-10T06:40:23;9.47;;;5.30;;
76566;SDS011;65428;53.194;6.132;2023-06-10T06:42:49;8.93;;;5.38;;
76566;SDS011;65428;53.194;6.132;2023-06-10T06:45:15;8.38;;;5.40;;
76566;SDS011;65428;53.194;6.132;2023-06-10T06:47:40;8.00;;;5.27;;
76566;SDS011;65428;53.194;6.132;2023-06-10T06:50:06;7.40;;;4.80;;
76566;SDS011;65428;53.194;6.132;2023-06-10T06:52:32;8.80;;;4.97;;
76566;SDS011;65428;53.194;6.132;2023-06-10T06:54:57;7.40;;;5.20;;
76566;SDS011;65428;53.194;6.132;2023-06-10T06:57:23;8.97;;;5.00;;
76566;SDS011;65428;53.194;6.132;2023-06-10T06:59:49;8.57;;;4.97;;
76566;SDS011;65428;53.194;6.132;2023-06-10T07:02:14;9.07;;;5.25;;
76566;SDS011;65428;53.194;6.132;2023-06-10T07:04:40;8.60;;;5.43;;
76566;SDS011;65428;53.194;6.132;2023-06-10T07:07:07;11.05;;;5.30;;
76566;SDS011;65428;53.194;6.132;2023-06-10T07:09:34;8.15;;;5.35;;
76566;SDS011;65428;53.194;6.132;2023-06-10T07:11:59;9.87;;;6.03;;
76566;SDS011;65428;53.194;6.132;2023-06-10T07:14:25;9.18;;;5.60;;
76566;SDS011;65428;53.194;6.132;2023-06-10T07:16:51;10.30;;;5.18;;
76566;SDS011;65428;53.194;6.132;2023-06-10T07:19:17;7.83;;;4.97;;
76566;SDS011;65428;53.194;6.132;2023-06-10T07:21:42;7.33;;;4.90;;
76566;SDS011;65428;53.194;6.132;2023-06-10T07:24:08;10.07;;;5.35;;
76566;SDS011;65428;53.194;6.132;2023-06-10T07:26:33;8.87;;;5.30;;
76566;SDS011;65428;53.194;6.132;2023-06-10T07:28:59;7.60;;;4.90;;
76566;SDS011;65428;53.194;6.132;2023-06-10T07:31:24;7.47;;;4.80;;
76566;SDS011;65428;53.194;6.132;2023-06-10T07:33:50;9.50;;;5.40;;
76566;SDS011;65428;53.194;6.132;2023-06-10T07:36:16;8.20;;;4.97;;
76566;SDS011;65428;53.194;6.132;2023-06-10T07:38:41;7.90;;;4.70;;
76566;SDS011;65428;53.194;6.132;2023-06-10T07:41:07;8.60;;;4.68;;
76566;SDS011;65428;53.194;6.132;2023-06-10T07:43:33;6.53;;;4.20;;
76566;SDS011;65428;53.194;6.132;2023-06-10T07:45:59;10.05;;;4.72;;
76566;SDS011;65428;53.194;6.132;2023-06-10T07:48:25;8.00;;;4.37;;
76566;SDS011;65428;53.194;6.132;2023-06-10T07:50:51;7.30;;;4.50;;
76566;SDS011;65428;53.194;6.132;2023-06-10T07:53:17;6.90;;;4.00;;
76566;SDS011;65428;53.194;6.132;2023-06-10T07:55:43;7.10;;;4.40;;
76566;SDS011;65428;53.194;6.132;2023-06-10T07:58:09;6.90;;;4.27;;
76566;SDS011;65428;53.194;6.132;2023-06-10T08:00:35;7.75;;;4.30;;
76566;SDS011;65428;53.194;6.132;2023-06-10T08:03:00;6.20;;;3.70;;
76566;SDS011;65428;53.194;6.132;2023-06-10T08:05:26;6.65;;;4.18;;
76566;SDS011;65428;53.194;6.132;2023-06-10T08:07:52;8.13;;;4.20;;
76566;SDS011;65428;53.194;6.132;2023-06-10T08:10:17;7.07;;;4.15;;
76566;SDS011;65428;53.194;6.132;2023-06-10T08:12:43;8.30;;;4.17;;
76566;SDS011;65428;53.194;6.132;2023-06-10T08:15:09;7.80;;;4.30;;
76566;SDS011;65428;53.194;6.132;2023-06-10T08:17:35;8.93;;;4.47;;
76566;SDS011;65428;53.194;6.132;2023-06-10T08:20:00;6.82;;;4.00;;
76566;SDS011;65428;53.194;6.132;2023-06-10T08:22:27;7.47;;;4.43;;
76566;SDS011;65428;53.194;6.132;2023-06-10T08:24:54;7.25;;;4.03;;
76566;SDS011;65428;53.194;6.132;2023-06-10T08:27:21;7.88;;;4.43;;
76566;SDS011;65428;53.194;6.132;2023-06-10T08:29:46;8.90;;;4.53;;
76566;SDS011;65428;53.194;6.132;2023-06-10T08:32:12;6.90;;;4.55;;
76566;SDS011;65428;53.194;6.132;2023-06-10T08:34:38;7.07;;;4.53;;
76566;SDS011;65428;53.194;6.132;2023-06-10T08:37:04;6.78;;;4.22;;
76566;SDS011;65428;53.194;6.132;2023-06-10T08:39:30;9.95;;;5.43;;
76566;SDS011;65428;53.194;6.132;2023-06-10T08:42:04;6.80;;;4.47;;
76566;SDS011;65428;53.194;6.132;2023-06-10T08:44:52;7.18;;;4.45;;
76566;SDS011;65428;53.194;6.132;2023-06-10T08:47:24;6.03;;;3.95;;
76566;SDS011;65428;53.194;6.132;2023-06-10T08:49:51;6.95;;;3.80;;
76566;SDS011;65428;53.194;6.132;2023-06-10T08:52:19;6.45;;;4.25;;
76566;SDS011;65428;53.194;6.132;2023-06-10T08:54:49;6.47;;;4.40;;
76566;SDS011;65428;53.194;6.132;2023-06-10T08:57:19;8.73;;;4.47;;
76566;SDS011;65428;53.194;6.132;2023-06-10T08:59:46;6.53;;;3.90;;
76566;SDS011;65428;53.194;6.132;2023-06-10T09:02:13;6.18;;;3.92;;
76566;SDS011;65428;53.194;6.132;2023-06-10T09:04:43;6.20;;;3.90;;
76566;SDS011;65428;53.194;6.132;2023-06-10T09:07:10;4.90;;;3.38;;
76566;SDS011;65428;53.194;6.132;2023-06-10T09:09:37;5.65;;;3.70;;
76566;SDS011;65428;53.194;6.132;2023-06-10T09:12:03;6.25;;;4.20;;
76566;SDS011;65428;53.194;6.132;2023-06-10T09:14:29;5.97;;;3.80;;
76566;SDS011;65428;53.194;6.132;2023-06-10T09:16:55;6.90;;;3.43;;
76566;SDS011;65428;53.194;6.132;2023-06-10T09:19:25;5.00;;;3.38;;
76566;SDS011;65428;53.194;6.132;2023-06-10T09:21:51;6.35;;;3.13;;
76566;SDS011;65428;53.194;6.132;2023-06-10T09:24:17;6.60;;;3.42;;
76566;SDS011;65428;53.194;6.132;2023-06-10T09:26:43;6.47;;;3.55;;
76566;SDS011;65428;53.194;6.132;2023-06-10T09:29:10;6.20;;;3.30;;
76566;SDS011;65428;53.194;6.132;2023-06-10T09:31:37;5.57;;;3.40;;
76566;SDS011;65428;53.194;6.132;2023-06-10T09:34:24;6.55;;;3.20;;
76566;SDS011;65428;53.194;6.132;2023-06-10T09:36:51;4.80;;;3.38;;
76566;SDS011;65428;53.194;6.132;2023-06-10T09:39:17;5.53;;;3.37;;
76566;SDS011;65428;53.194;6.132;2023-06-10T09:41:44;6.28;;;3.40;;
76566;SDS011;65428;53.194;6.132;2023-06-10T09:44:17;4.72;;;3.28;;
76566;SDS011;65428;53.194;6.132;2023-06-10T09:46:45;5.25;;;2.97;;
76566;SDS011;65428;53.194;6.132;2023-06-10T09:49:12;6.30;;;3.50;;
76566;SDS011;65428;53.194;6.132;2023-06-10T09:51:38;6.20;;;3.28;;
76566;SDS011;65428;53.194;6.132;2023-06-10T09:54:17;6.68;;;3.30;;
76566;SDS011;65428;53.194;6.132;2023-06-10T09:56:43;5.67;;;3.07;;
76566;SDS011;65428;53.194;6.132;2023-06-10T09:59:12;6.33;;;3.53;;
76566;SDS011;65428;53.194;6.132;2023-06-10T10:01:38;6.03;;;3.17;;
76566;SDS011;65428;53.194;6.132;2023-06-10T10:04:04;7.13;;;3.50;;
76566;SDS011;65428;53.194;6.132;2023-06-10T10:06:30;5.35;;;3.45;;
76566;SDS011;65428;53.194;6.132;2023-06-10T10:08:55;5.40;;;3.20;;
76566;SDS011;65428;53.194;6.132;2023-06-10T10:11:21;4.63;;;2.90;;
76566;SDS011;65428;53.194;6.132;2023-06-10T10:13:48;5.10;;;3.10;;
76566;SDS011;65428;53.194;6.132;2023-06-10T10:16:23;5.28;;;2.80;;
76566;SDS011;65428;53.194;6.132;2023-06-10T10:19:12;5.72;;;3.00;;
76566;SDS011;65428;53.194;6.132;2023-06-10T10:21:54;4.95;;;2.90;;
76566;SDS011;65428;53.194;6.132;2023-06-10T10:24:27;4.27;;;2.47;;
76566;SDS011;65428;53.194;6.132;2023-06-10T10:26:59;4.88;;;2.58;;
76566;SDS011;65428;53.194;6.132;2023-06-10T10:29:33;4.82;;;2.80;;
76566;SDS011;65428;53.194;6.132;2023-06-10T10:32:03;4.80;;;2.72;;
76566;SDS011;65428;53.194;6.132;2023-06-10T10:34:35;4.47;;;2.50;;
76566;SDS011;65428;53.194;6.132;2023-06-10T10:37:08;4.63;;;2.22;;
76566;SDS011;65428;53.194;6.132;2023-06-10T10:39:34;4.40;;;2.90;;
76566;SDS011;65428;53.194;6.132;2023-06-10T10:42:01;3.53;;;2.57;;
76566;SDS011;65428;53.194;6.132;2023-06-10T10:44:29;4.03;;;2.35;;
76566;SDS011;65428;53.194;6.132;2023-06-10T10:46:56;3.75;;;2.15;;
76566;SDS011;65428;53.194;6.132;2023-06-10T10:49:27;4.03;;;2.25;;
76566;SDS011;65428;53.194;6.132;2023-06-10T10:52:00;3.72;;;2.30;;
76566;SDS011;65428;53.194;6.132;2023-06-10T10:59:46;5.30;;;2.33;;
76566;SDS011;65428;53.194;6.132;2023-06-10T11:05:03;3.42;;;2.35;;
76566;SDS011;65428;53.194;6.132;2023-06-10T11:07:30;3.78;;;2.40;;
76566;SDS011;65428;53.194;6.132;2023-06-10T11:09:58;3.25;;;2.30;;
76566;SDS011;65428;53.194;6.132;2023-06-10T11:12:25;4.33;;;2.30;;
76566;SDS011;65428;53.194;6.132;2023-06-10T11:15:03;5.13;;;2.13;;
76566;SDS011;65428;53.194;6.132;2023-06-10T11:17:29;3.15;;;1.95;;
76566;SDS011;65428;53.194;6.132;2023-06-10T11:19:55;4.30;;;2.10;;
76566;SDS011;65428;53.194;6.132;2023-06-10T11:22:24;4.50;;;2.20;;
76566;SDS011;65428;53.194;6.132;2023-06-10T11:24:49;4.70;;;2.17;;
76566;SDS011;65428;53.194;6.132;2023-06-10T11:27:22;4.63;;;2.42;;
76566;SDS011;65428;53.194;6.132;2023-06-10T11:30:17;4.55;;;2.38;;
76566;SDS011;65428;53.194;6.132;2023-06-10T11:32:44;4.03;;;1.98;;
76566;SDS011;65428;53.194;6.132;2023-06-10T11:35:16;4.20;;;2.20;;
76566;SDS011;65428;53.194;6.132;2023-06-10T11:37:43;4.28;;;2.35;;
76566;SDS011;65428;53.194;6.132;2023-06-10T11:40:08;4.80;;;2.00;;
76566;SDS011;65428;53.194;6.132;2023-06-10T11:42:38;5.10;;;1.83;;
76566;SDS011;65428;53.194;6.132;2023-06-10T11:45:05;3.33;;;1.88;;
76566;SDS011;65428;53.194;6.132;2023-06-10T11:47:33;4.25;;;1.80;;
76566;SDS011;65428;53.194;6.132;2023-06-10T11:49:59;4.30;;;2.03;;
76566;SDS011;65428;53.194;6.132;2023-06-10T11:52:31;3.70;;;2.10;;
76566;SDS011;65428;53.194;6.132;2023-06-10T11:54:58;4.00;;;2.13;;
76566;SDS011;65428;53.194;6.132;2023-06-10T11:57:24;3.85;;;1.90;;
76566;SDS011;65428;53.194;6.132;2023-06-10T11:59:50;3.27;;;1.70;;
76566;SDS011;65428;53.194;6.132;2023-06-10T12:02:16;4.20;;;2.17;;
76566;SDS011;65428;53.194;6.132;2023-06-10T12:04:42;3.50;;;1.60;;
76566;SDS011;65428;53.194;6.132;2023-06-10T12:07:07;3.90;;;1.63;;
76566;SDS011;65428;53.194;6.132;2023-06-10T12:09:33;3.13;;;1.90;;
76566;SDS011;65428;53.194;6.132;2023-06-10T12:19:59;4.03;;;1.75;;
76566;SDS011;65428;53.194;6.132;2023-06-10T12:22:25;3.60;;;1.95;;
76566;SDS011;65428;53.194;6.132;2023-06-10T12:25:04;3.83;;;2.27;;
76566;SDS011;65428;53.194;6.132;2023-06-10T12:27:32;3.67;;;1.90;;
76566;SDS011;65428;53.194;6.132;2023-06-10T12:29:59;3.10;;;1.88;;
76566;SDS011;65428;53.194;6.132;2023-06-10T12:32:35;2.80;;;1.95;;
76566;SDS011;65428;53.194;6.132;2023-06-10T12:35:04;3.30;;;1.80;;
76566;SDS011;65428;53.194;6.132;2023-06-10T12:37:31;4.87;;;2.40;;
76566;SDS011;65428;53.194;6.132;2023-06-10T12:40:01;5.07;;;2.50;;
76566;SDS011;65428;53.194;6.132;2023-06-10T12:42:28;3.95;;;2.45;;
76566;SDS011;65428;53.194;6.132;2023-06-10T12:44:59;5.75;;;3.22;;
76566;SDS011;65428;53.194;6.132;2023-06-10T12:47:34;5.35;;;2.63;;
76566;SDS011;65428;53.194;6.132;2023-06-10T12:50:01;5.20;;;2.80;;
76566;SDS011;65428;53.194;6.132;2023-06-10T12:52:28;5.18;;;2.60;;
76566;SDS011;65428;53.194;6.132;2023-06-10T12:54:54;5.78;;;2.83;;
76566;SDS011;65428;53.194;6.132;2023-06-10T12:57:20;5.38;;;2.70;;
76566;SDS011;65428;53.194;6.132;2023-06-10T12:59:46;5.80;;;3.13;;
76566;SDS011;65428;53.194;6.132;2023-06-10T13:02:17;5.20;;;2.90;;
76566;SDS011;65428;53.194;6.132;2023-06-10T13:04:45;5.57;;;3.03;;
76566;SDS011;65428;53.194;6.132;2023-06-10T13:07:11;6.15;;;3.50;;
76566;SDS011;65428;53.194;6.132;2023-06-10T13:09:37;4.63;;;3.20;;
76566;SDS011;65428;53.194;6.132;2023-06-10T13:12:02;6.63;;;3.80;;
76566;SDS011;65428;53.194;6.132;2023-06-10T13:14:28;5.55;;;3.20;;
76566;SDS011;65428;53.194;6.132;2023-06-10T13:16:54;4.65;;;3.00;;
76566;SDS011;65428;53.194;6.132;2023-06-10T13:19:20;7.32;;;3.40;;
76566;SDS011;65428;53.194;6.132;2023-06-10T13:21:47;5.82;;;2.90;;
76566;SDS011;65428;53.194;6.132;2023-06-10T13:24:16;6.07;;;2.50;;
76566;SDS011;65428;53.194;6.132;2023-06-10T13:26:42;4.97;;;2.60;;
76566;SDS011;65428;53.194;6.132;2023-06-10T13:29:08;5.65;;;2.90;;
76566;SDS011;65428;53.194;6.132;2023-06-10T13:31:38;6.13;;;2.90;;
76566;SDS011;65428;53.194;6.132;2023-06-10T13:34:04;6.13;;;2.50;;
76566;SDS011;65428;53.194;6.132;2023-06-10T13:36:31;6.65;;;2.65;;
76566;SDS011;65428;53.194;6.132;2023-06-10T13:38:57;6.32;;;2.60;;
76566;SDS011;65428;53.194;6.132;2023-06-10T13:41:22;6.57;;;2.63;;
76566;SDS011;65428;53.194;6.132;2023-06-10T13:43:48;6.10;;;2.50;;
76566;SDS011;65428;53.194;6.132;2023-06-10T13:46:13;5.60;;;2.60;;
76566;SDS011;65428;53.194;6.132;2023-06-10T13:48:39;6.00;;;2.70;;
76566;SDS011;65428;53.194;6.132;2023-06-10T13:51:08;5.93;;;2.50;;
76566;SDS011;65428;53.194;6.132;2023-06-10T13:53:34;7.47;;;2.80;;
76566;SDS011;65428;53.194;6.132;2023-06-10T13:56:00;5.32;;;2.58;;
76566;SDS011;65428;53.194;6.132;2023-06-10T13:58:26;5.18;;;2.47;;
76566;SDS011;65428;53.194;6.132;2023-06-10T14:00:52;5.73;;;2.60;;
76566;SDS011;65428;53.194;6.132;2023-06-10T14:03:18;5.33;;;2.57;;
76566;SDS011;65428;53.194;6.132;2023-06-10T14:05:43;6.80;;;2.47;;
76566;SDS011;65428;53.194;6.132;2023-06-10T14:08:09;7.50;;;2.90;;
76566;SDS011;65428;53.194;6.132;2023-06-10T14:10:35;5.15;;;2.60;;
76566;SDS011;65428;53.194;6.132;2023-06-10T14:13:00;5.13;;;2.53;;
76566;SDS011;65428;53.194;6.132;2023-06-10T14:15:26;5.38;;;2.50;;
76566;SDS011;65428;53.194;6.132;2023-06-10T14:17:51;6.25;;;2.55;;
76566;SDS011;65428;53.194;6.132;2023-06-10T14:20:17;5.70;;;2.63;;
76566;SDS011;65428;53.194;6.132;2023-06-10T14:22:42;6.57;;;2.72;;
76566;SDS011;65428;53.194;6.132;2023-06-10T14:25:08;5.20;;;2.40;;
76566;SDS011;65428;53.194;6.132;2023-06-10T14:27:36;7.70;;;2.42;;
76566;SDS011;65428;53.194;6.132;2023-06-10T14:30:02;6.27;;;2.63;;
76566;SDS011;65428;53.194;6.132;2023-06-10T14:32:28;5.32;;;2.40;;
76566;SDS011;65428;53.194;6.132;2023-06-10T14:34:54;5.13;;;2.63;;
76566;SDS011;65428;53.194;6.132;2023-06-10T14:37:20;4.87;;;2.20;;
76566;SDS011;65428;53.194;6.132;2023-06-10T14:39:46;4.97;;;2.30;;
76566;SDS011;65428;53.194;6.132;2023-06-10T14:42:11;7.40;;;2.88;;
76566;SDS011;65428;53.194;6.132;2023-06-10T14:44:37;7.10;;;2.73;;
76566;SDS011;65428;53.194;6.132;2023-06-10T14:47:03;7.27;;;2.80;;
76566;SDS011;65428;53.194;6.132;2023-06-10T14:49:28;7.10;;;2.70;;
76566;SDS011;65428;53.194;6.132;2023-06-10T14:51:54;8.07;;;2.80;;
76566;SDS011;65428;53.194;6.132;2023-06-10T14:54:19;6.72;;;2.95;;
76566;SDS011;65428;53.194;6.132;2023-06-10T14:56:45;8.73;;;3.00;;
76566;SDS011;65428;53.194;6.132;2023-06-10T14:59:11;6.67;;;2.50;;
76566;SDS011;65428;53.194;6.132;2023-06-10T15:01:36;6.93;;;2.47;;